Time;durP1;ratioP1;P1;durP2;ratioP2;P2;SDS_P1;SDS_P2;PMS_P1;PMS_P2;Temp;Humidity;BMP_temperature;BMP_pressure;BME280_temperature;BME280_humidity;BME280_pressure;Samples;Min_cycle;Max_cycle;Signal;HPM_P1;HPM_P2
2021/01/15 00:03:42;;;;;;;3.58;2.92;;;;;;;1.76;58.94;100494.88;10374451;28;20049;-70
2021/01/15 00:08:43;;;;;;;5.60;3.38;;;;;;;1.77;59.68;100496.59;10374142;28;20052;-69
2021/01/15 00:13:44;;;;;;;4.05;3.10;;;;;;;1.76;59.28;100505.38;10371778;28;20053;-69
2021/01/15 00:18:46;;;;;;;4.75;3.20;;;;;;;1.73;59.43;100497.63;10374571;28;20065;-69
2021/01/15 00:23:47;;;;;;;4.70;3.75;;;;;;;1.72;59.04;100495.91;10371133;28;20052;-69
2021/01/15 00:28:49;;;;;;;4.95;3.45;;;;;;;1.71;58.83;100496.84;10369768;28;20115;-68
2021/01/15 00:33:50;;;;;;;3.22;2.80;;;;;;;1.64;59.24;100492.75;10369370;28;20261;-68
2021/01/15 00:38:51;;;;;;;2.90;2.42;;;;;;;1.65;59.15;100502.34;10368511;28;20057;-69
2021/01/15 00:43:53;;;;;;;3.92;3.20;;;;;;;1.59;59.51;100500.78;10368641;28;20569;-69
2021/01/15 00:48:54;;;;;;;4.90;3.75;;;;;;;1.63;59.42;100500.69;10368184;28;20666;-70
2021/01/15 00:53:56;;;;;;;3.95;3.42;;;;;;;1.58;59.67;100496.47;10367938;28;20053;-70
2021/01/15 00:58:57;;;;;;;3.80;2.95;;;;;;;1.51;60.01;100500.22;10368661;28;20307;-70
2021/01/15 01:03:59;;;;;;;4.00;2.70;;;;;;;1.50;59.33;100502.91;10368572;28;20092;-69
2021/01/15 01:09:03;;;;;;;3.38;3.08;;;;;;;1.53;59.76;100501.03;10367577;28;20409;-70
2021/01/15 01:14:05;;;;;;;3.27;2.80;;;;;;;1.53;59.53;100503.66;10367450;28;20148;-68
2021/01/15 01:19:06;;;;;;;2.95;2.65;;;;;;;1.52;59.84;100511.59;10373428;28;20211;-68
2021/01/15 01:24:08;;;;;;;3.85;2.65;;;;;;;1.56;59.62;100510.53;10368344;28;20052;-69
2021/01/15 01:29:09;;;;;;;4.32;2.55;;;;;;;1.54;59.01;100522.88;10366675;28;20132;-70
2021/01/15 01:34:10;;;;;;;5.90;2.97;;;;;;;1.50;59.19;100529.16;10370162;28;20092;-70
2021/01/15 01:39:12;;;;;;;3.60;2.80;;;;;;;1.48;58.86;100531.00;10367580;28;20643;-69
2021/01/15 01:44:13;;;;;;;2.70;2.00;;;;;;;1.46;58.67;100533.66;10334868;28;20050;-69
2021/01/15 01:49:15;;;;;;;3.25;2.47;;;;;;;1.32;58.92;100528.97;10330786;28;21694;-70
2021/01/15 01:54:17;;;;;;;3.45;2.08;;;;;;;1.34;58.68;100540.22;10327627;28;20046;-70
2021/01/15 01:59:18;;;;;;;2.92;2.03;;;;;;;1.27;58.82;100536.13;10328273;28;20558;-71
2021/01/15 02:04:19;;;;;;;4.60;2.85;;;;;;;1.38;58.53;100551.44;10327639;28;20057;-68
2021/01/15 02:09:29;;;;;;;4.22;3.10;;;;;;;1.36;58.64;100548.88;10329829;28;20842;-70
2021/01/15 02:14:48;;;;;;;4.38;2.97;;;;;;;1.38;58.62;100551.44;10367767;28;20134;-68
2021/01/15 02:20:21;;;;;;;3.00;2.70;;;;;;;1.34;58.66;100545.47;10329097;28;20049;-70
2021/01/15 02:25:33;;;;;;;4.38;2.80;;;;;;;1.35;59.57;100547.19;10330225;28;20050;-70
2021/01/15 02:30:37;;;;;;;4.32;3.28;;;;;;;1.32;59.98;100556.94;10329388;28;20057;-70
2021/01/15 02:35:48;;;;;;;5.30;3.08;;;;;;;1.26;60.44;100562.41;10341676;28;20256;-70
2021/01/15 02:41:08;;;;;;;4.15;3.47;;;;;;;1.18;60.91;100570.56;10337671;28;20108;-69
2021/01/15 02:46:14;;;;;;;6.45;4.20;;;;;;;1.17;61.52;100581.94;10331643;28;20132;-69
2021/01/15 02:51:16;;;;;;;6.63;5.18;;;;;;;1.19;61.50;100588.00;10347230;28;20057;-70
2021/01/15 02:56:17;;;;;;;5.15;3.50;;;;;;;1.30;61.97;100591.09;10336520;28;20120;-69
2021/01/15 03:01:21;;;;;;;5.28;4.43;;;;;;;1.36;62.05;100595.25;10333461;28;20116;-70
2021/01/15 03:06:36;;;;;;;4.67;3.57;;;;;;;1.45;61.65;100594.06;10368294;28;20055;-69
2021/01/15 03:11:39;;;;;;;6.30;5.17;;;;;;;1.58;62.10;100606.66;10339937;28;20066;-73
2021/01/15 03:16:42;;;;;;;6.57;5.05;;;;;;;1.58;62.53;100616.31;10331683;28;20045;-70
2021/01/15 03:21:44;;;;;;;5.72;5.13;;;;;;;1.62;62.40;100614.41;10333976;28;20074;-70
2021/01/15 03:26:45;;;;;;;6.43;4.95;;;;;;;1.61;62.51;100616.19;10339090;28;20545;-69
2021/01/15 03:31:46;;;;;;;5.45;4.63;;;;;;;1.62;62.58;100623.13;10330569;28;20057;-71
2021/01/15 03:36:48;;;;;;;6.82;5.53;;;;;;;1.65;62.80;100628.31;10331641;28;20038;-70
2021/01/15 03:41:49;;;;;;;6.93;6.15;;;;;;;1.69;62.71;100629.03;10331541;28;24874;-70
2021/01/15 03:46:54;;;;;;;7.60;6.07;;;;;;;1.76;62.55;100638.41;10372591;28;20191;-70
2021/01/15 03:51:56;;;;;;;6.82;6.13;;;;;;;1.70;62.94;100639.47;10371931;28;20049;-69
2021/01/15 03:56:57;;;;;;;11.13;7.35;;;;;;;1.57;63.69;100643.47;10368107;28;20054;-69
2021/01/15 04:01:58;;;;;;;7.40;6.63;;;;;;;1.66;63.86;100643.13;10374672;28;20142;-69
2021/01/15 04:07:00;;;;;;;9.38;6.35;;;;;;;1.64;63.68;100647.56;10341212;28;20054;-70
2021/01/15 04:12:02;;;;;;;6.97;5.90;;;;;;;1.66;63.78;100665.88;10334886;28;20053;-70
2021/01/15 04:17:03;;;;;;;8.00;7.20;;;;;;;1.56;64.34;100670.59;10334525;28;20132;-70
2021/01/15 04:22:05;;;;;;;8.43;7.13;;;;;;;1.59;64.47;100675.75;10333294;28;20049;-69
2021/01/15 04:27:06;;;;;;;9.55;7.55;;;;;;;1.57;64.57;100688.06;10333468;28;20164;-70
2021/01/15 04:32:07;;;;;;;8.40;7.30;;;;;;;1.67;64.74;100699.09;10329796;28;20503;-70
2021/01/15 04:37:09;;;;;;;10.52;7.95;;;;;;;1.76;64.16;100696.13;10331138;28;20053;-69
2021/01/15 04:42:14;;;;;;;9.05;7.95;;;;;;;1.55;64.94;100693.38;10329625;28;20062;-70
2021/01/15 04:47:15;;;;;;;12.40;8.65;;;;;;;1.73;64.32;100699.72;10331759;28;20192;-69
2021/01/15 04:52:19;;;;;;;10.32;7.55;;;;;;;1.80;64.33;100704.75;10331792;28;21230;-69
2021/01/15 04:57:20;;;;;;;9.85;8.10;;;;;;;1.81;64.59;100716.97;10329973;28;20425;-69
2021/01/15 05:02:22;;;;;;;9.32;7.47;;;;;;;1.85;64.45;100718.56;10330061;28;20266;-69
2021/01/15 05:07:26;;;;;;;9.57;8.45;;;;;;;1.73;64.53;100709.38;10328671;28;20050;-69
2021/01/15 05:12:29;;;;;;;9.57;7.15;;;;;;;1.79;64.47;100729.28;10327813;28;20876;-70
2021/01/15 05:17:32;;;;;;;10.40;7.75;;;;;;;1.76;64.38;100720.59;10333076;28;20060;-70
2021/01/15 05:22:33;;;;;;;9.85;8.23;;;;;;;1.76;64.61;100723.22;10334982;28;20249;-70
2021/01/15 05:27:40;;;;;;;11.65;8.60;;;;;;;1.72;64.63;100734.75;10336584;28;20053;-70
2021/01/15 05:32:42;;;;;;;9.35;7.68;;;;;;;1.77;64.58;100738.09;10336926;28;20050;-70
2021/01/15 05:37:58;;;;;;;10.75;7.88;;;;;;;1.73;64.18;100746.97;10339355;28;20061;-70
2021/01/15 05:43:00;;;;;;;13.27;8.43;;;;;;;1.80;64.15;100749.38;10338261;28;20054;-70
2021/01/15 05:48:05;;;;;;;11.40;8.57;;;;;;;1.77;63.99;100758.19;10334976;28;20426;-72
2021/01/15 05:53:06;;;;;;;9.88;8.85;;;;;;;1.75;64.03;100747.75;10337389;28;20054;-71
2021/01/15 05:58:09;;;;;;;10.63;8.75;;;;;;;1.62;64.31;100749.09;10340215;28;20054;-69
2021/01/15 06:03:13;;;;;;;10.50;8.30;;;;;;;1.57;64.88;100767.63;10349562;28;20053;-71
2021/01/15 06:08:16;;;;;;;10.77;8.63;;;;;;;1.54;64.55;100777.41;10329134;28;20046;-70
2021/01/15 06:13:44;;;;;;;11.98;8.93;;;;;;;1.44;64.97;100779.47;10341393;28;20056;-72
2021/01/15 06:18:57;;;;;;;9.57;8.10;;;;;;;1.37;65.54;100791.94;10353222;28;20046;-71
2021/01/15 06:24:07;;;;;;;10.15;8.55;;;;;;;1.31;65.88;100786.91;10350650;28;20057;-72
2021/01/15 06:29:12;;;;;;;12.90;8.45;;;;;;;1.23;65.77;100796.78;10358292;28;20085;-71
2021/01/15 06:34:15;;;;;;;11.60;8.93;;;;;;;1.22;66.33;100802.97;10361458;28;20104;-72
2021/01/15 06:39:17;;;;;;;12.35;9.43;;;;;;;1.14;66.48;100805.84;10348440;28;20153;-70
2021/01/15 06:44:20;;;;;;;11.63;9.27;;;;;;;1.08;66.84;100802.53;10342979;28;20050;-71
2021/01/15 06:49:34;;;;;;;11.88;9.27;;;;;;;1.05;67.20;100807.00;10342131;28;20153;-72
2021/01/15 06:54:40;;;;;;;12.65;9.23;;;;;;;0.98;67.63;100809.84;10342270;28;20050;-71
2021/01/15 06:59:51;;;;;;;12.48;9.20;;;;;;;0.97;67.10;100808.97;10337891;28;20108;-71
2021/01/15 07:05:00;;;;;;;11.63;9.18;;;;;;;0.84;67.01;100818.13;10336284;28;20124;-71
2021/01/15 07:10:04;;;;;;;10.35;8.75;;;;;;;0.84;67.27;100823.38;10335159;28;20065;-70
2021/01/15 07:15:12;;;;;;;11.38;8.40;;;;;;;0.82;67.33;100831.28;10339731;28;20563;-70
2021/01/15 07:20:18;;;;;;;10.93;8.52;;;;;;;0.80;67.36;100835.72;10333106;28;20604;-71
2021/01/15 07:25:21;;;;;;;10.98;8.77;;;;;;;0.86;67.58;100840.78;10333638;28;20112;-70
2021/01/15 07:30:27;;;;;;;10.57;8.38;;;;;;;0.89;67.01;100855.56;10330304;28;20060;-69
2021/01/15 07:35:29;;;;;;;11.52;8.45;;;;;;;0.74;67.26;100853.41;10333611;28;20054;-71
2021/01/15 07:40:35;;;;;;;12.75;9.13;;;;;;;0.88;67.44;100857.31;10331564;28;20041;-71
2021/01/15 07:45:39;;;;;;;11.13;8.27;;;;;;;1.02;66.92;100869.13;10331662;28;20535;-72
2021/01/15 07:50:43;;;;;;;13.47;8.97;;;;;;;1.13;66.75;100876.69;10332781;28;20072;-71
2021/01/15 07:55:55;;;;;;;10.65;9.02;;;;;;;1.12;67.26;100882.84;10332150;28;20060;-69
2021/01/15 08:01:07;;;;;;;13.20;9.70;;;;;;;1.24;66.69;100885.06;10333094;28;20464;-69
2021/01/15 08:06:10;;;;;;;13.45;10.27;;;;;;;1.29;66.43;100888.41;10334593;28;20104;-71
2021/01/15 08:11:11;;;;;;;12.93;11.20;;;;;;;1.45;65.98;100898.41;10330420;28;20042;-69
2021/01/15 08:16:13;;;;;;;13.80;10.27;;;;;;;1.41;65.75;100898.50;10332752;28;20484;-70
2021/01/15 08:21:19;;;;;;;14.60;10.68;;;;;;;1.38;65.78;100903.84;10354762;23;20045;-67
2021/01/15 08:26:31;;;;;;;15.35;10.95;;;;;;;1.52;65.53;100900.78;10408273;28;20045;-68
2021/01/15 08:31:33;;;;;;;13.57;10.48;;;;;;;1.79;64.79;100907.78;10383569;28;20561;-67
2021/01/15 08:36:41;;;;;;;17.40;11.63;;;;;;;1.79;64.24;100919.16;10365934;28;20062;-66
2021/01/15 08:41:43;;;;;;;14.50;11.50;;;;;;;1.90;64.05;100917.00;10441762;28;20114;-66
2021/01/15 08:46:46;;;;;;;14.88;11.52;;;;;;;1.92;63.99;100916.97;10414733;28;20041;-66
2021/01/15 08:51:50;;;;;;;15.75;11.55;;;;;;;2.16;63.99;100938.06;10415085;28;20048;-65
2021/01/15 08:56:52;;;;;;;13.10;11.45;;;;;;;2.34;63.12;100949.69;10429205;28;20140;-66
2021/01/15 09:01:56;;;;;;;14.32;11.65;;;;;;;2.44;63.07;100953.72;10413665;28;20051;-65
2021/01/15 09:07:04;;;;;;;13.53;11.47;;;;;;;2.78;61.66;100973.53;10413794;28;20048;-67
2021/01/15 09:12:08;;;;;;;15.38;10.60;;;;;;;2.86;61.32;100976.72;10414058;28;20067;-66
2021/01/15 09:17:10;;;;;;;14.37;10.87;;;;;;;2.76;61.91;100991.13;10412931;28;20053;-66
2021/01/15 09:22:17;;;;;;;13.38;10.73;;;;;;;2.34;62.14;100944.44;10410202;28;20041;-66
2021/01/15 09:27:20;;;;;;;12.77;10.13;;;;;;;2.54;62.65;100996.28;10415103;28;20462;-66
2021/01/15 09:32:22;;;;;;;11.68;10.18;;;;;;;2.71;62.48;101004.44;10410758;28;20049;-66
2021/01/15 09:37:23;;;;;;;13.48;10.05;;;;;;;2.86;62.19;101017.94;10381452;28;20488;-66
2021/01/15 09:42:24;;;;;;;11.70;10.13;;;;;;;2.87;62.23;101007.38;10373947;28;20058;-67
2021/01/15 09:47:29;;;;;;;13.18;10.63;;;;;;;3.09;62.11;101025.88;10371024;28;20049;-66
2021/01/15 09:52:31;;;;;;;11.30;10.03;;;;;;;2.83;62.33;100993.47;10441273;28;20060;-67
2021/01/15 09:57:43;;;;;;;11.90;9.93;;;;;;;3.06;62.45;101040.88;10409505;28;21035;-66
2021/01/15 10:02:44;;;;;;;10.77;8.90;;;;;;;2.96;63.04;101040.38;10412994;28;20052;-67
2021/01/15 10:07:46;;;;;;;11.70;9.63;;;;;;;3.25;62.49;101051.59;10416503;28;20114;-65
2021/01/15 10:12:47;;;;;;;12.02;10.43;;;;;;;3.28;62.26;101052.34;10424241;28;20098;-65
2021/01/15 10:17:48;;;;;;;14.27;10.63;;;;;;;3.41;62.30;101054.50;10389752;28;20060;-66
2021/01/15 10:22:50;;;;;;;14.40;9.88;;;;;;;3.34;62.36;101067.91;10372370;28;20115;-66
2021/01/15 10:27:52;;;;;;;12.57;9.77;;;;;;;3.36;62.71;101067.84;10372665;28;20056;-66
2021/01/15 10:32:53;;;;;;;12.20;9.68;;;;;;;3.35;62.60;101069.63;10369486;28;20057;-65
2021/01/15 10:37:54;;;;;;;11.57;9.25;;;;;;;3.39;62.52;101075.63;10373328;28;20104;-67
2021/01/15 10:42:55;;;;;;;12.25;10.40;;;;;;;3.36;62.49;101059.94;10369991;28;20049;-65
2021/01/15 10:47:57;;;;;;;17.27;11.10;;;;;;;3.38;63.00;101062.50;10375437;28;20056;-65
2021/01/15 10:52:59;;;;;;;12.95;10.98;;;;;;;3.49;62.57;101082.25;10424491;28;20103;-67
2021/01/15 10:58:00;;;;;;;14.55;11.40;;;;;;;3.42;63.17;101080.75;10456925;28;20060;-67
2021/01/15 11:03:01;;;;;;;14.43;11.20;;;;;;;2.92;63.96;101030.88;10429492;28;20040;-64
2021/01/15 11:08:03;;;;;;;13.95;11.82;;;;;;;3.27;63.87;101079.59;10431008;28;20105;-66
2021/01/15 11:13:04;;;;;;;15.88;12.30;;;;;;;3.44;63.66;101084.22;10417632;28;20211;-68
2021/01/15 11:18:05;;;;;;;15.40;12.88;;;;;;;3.48;63.44;101080.56;10420334;28;20407;-65
2021/01/15 11:23:08;;;;;;;17.00;12.02;;;;;;;3.48;63.89;101079.69;10417000;28;20056;-64
2021/01/15 11:28:10;;;;;;;15.80;13.32;;;;;;;3.59;63.52;101082.78;10377647;28;20052;-64
2021/01/15 11:33:11;;;;;;;15.15;12.07;;;;;;;3.48;63.39;101043.72;10369481;28;20048;-66
2021/01/15 11:38:21;;;;;;;14.80;12.32;;;;;;;3.74;63.27;101076.06;10399423;28;20124;-66
2021/01/15 11:43:23;;;;;;;14.82;12.48;;;;;;;3.84;63.01;101081.81;10392811;28;20071;-67
2021/01/15 11:48:24;;;;;;;18.00;12.82;;;;;;;3.73;63.43;101074.34;10392625;28;20045;-66
2021/01/15 11:53:26;;;;;;;17.38;13.05;;;;;;;3.74;63.76;101073.44;10389128;28;20058;-67
2021/01/15 11:58:28;;;;;;;17.35;12.55;;;;;;;3.68;64.41;101068.41;10376755;28;20049;-69
2021/01/15 12:03:29;;;;;;;17.75;13.30;;;;;;;3.53;64.83;101070.69;10373507;28;20061;-66
2021/01/15 12:08:31;;;;;;;16.83;13.73;;;;;;;3.81;64.08;101061.72;10380872;28;20041;-65
2021/01/15 12:13:34;;;;;;;15.38;12.93;;;;;;;3.98;63.69;101057.56;10416357;28;20063;-66
2021/01/15 12:18:35;;;;;;;16.67;13.73;;;;;;;3.85;63.92;101052.78;10435090;28;20072;-64
2021/01/15 12:23:36;;;;;;;19.60;14.68;;;;;;;3.86;64.20;101051.88;10436915;28;20060;-66
2021/01/15 12:28:38;;;;;;;16.73;13.75;;;;;;;3.71;64.75;101041.94;10416652;28;20142;-65
2021/01/15 12:33:39;;;;;;;19.10;14.30;;;;;;;3.78;64.47;101050.47;10426902;28;20048;-65
2021/01/15 12:38:41;;;;;;;19.13;14.02;;;;;;;3.57;65.38;101049.50;10435785;28;20032;-65
2021/01/15 12:43:45;;;;;;;17.27;13.70;;;;;;;3.68;65.11;101056.09;10426144;28;20698;-66
2021/01/15 12:48:46;;;;;;;22.13;17.23;;;;;;;3.70;65.06;101063.94;10417039;28;20052;-66
2021/01/15 12:53:48;;;;;;;19.83;15.55;;;;;;;3.64;65.47;101056.28;10414734;28;20061;-68
2021/01/15 12:58:49;;;;;;;16.42;13.60;;;;;;;3.81;64.87;101056.44;10401132;28;20474;-69
2021/01/15 13:03:50;;;;;;;19.25;13.95;;;;;;;3.65;65.15;101044.81;10377075;28;20341;-65
2021/01/15 13:08:51;;;;;;;15.70;12.45;;;;;;;3.87;66.04;101065.88;10375319;28;20048;-66
2021/01/15 13:13:57;;;;;;;15.88;12.15;;;;;;;4.03;64.70;101058.25;10383665;28;20064;-67
2021/01/15 13:19:01;;;;;;;16.60;12.55;;;;;;;4.05;63.86;101066.94;10380047;28;20071;-65
2021/01/15 13:24:02;;;;;;;17.77;13.45;;;;;;;4.04;63.80;101065.25;10394278;28;20061;-69
2021/01/15 13:29:03;;;;;;;17.95;13.15;;;;;;;4.12;63.45;101070.19;10385752;28;20634;-65
2021/01/15 13:34:05;;;;;;;16.60;12.45;;;;;;;4.21;63.43;101064.53;10378051;28;20095;-65
2021/01/15 13:39:06;;;;;;;15.60;12.88;;;;;;;4.23;63.38;101068.84;10374047;28;20051;-65
2021/01/15 13:44:07;;;;;;;13.27;11.45;;;;;;;4.30;63.28;101068.59;10374556;28;20049;-65
2021/01/15 13:49:09;;;;;;;16.33;12.48;;;;;;;4.31;62.43;101072.91;10374879;28;20538;-65
2021/01/15 13:54:10;;;;;;;16.90;13.85;;;;;;;4.14;63.19;101074.47;10380839;28;20057;-65
2021/01/15 13:59:11;;;;;;;16.60;13.13;;;;;;;4.16;62.85;101077.91;10376755;28;20053;-66
2021/01/15 14:04:13;;;;;;;15.98;12.65;;;;;;;4.10;63.44;101098.38;10374843;28;20056;-66
2021/01/15 14:09:14;;;;;;;17.67;12.70;;;;;;;3.76;64.56;101100.56;10420748;28;20053;-67
2021/01/15 14:14:16;;;;;;;17.63;13.52;;;;;;;3.89;64.36;101107.06;10420929;28;20059;-64
2021/01/15 14:19:17;;;;;;;16.85;13.48;;;;;;;3.89;64.06;101107.06;10379040;28;20064;-66
2021/01/15 14:24:18;;;;;;;15.77;12.15;;;;;;;4.02;64.06;101117.13;10372727;28;20671;-66
2021/01/15 14:29:19;;;;;;;13.90;11.30;;;;;;;4.00;63.36;101124.22;10373140;28;20045;-68
2021/01/15 14:34:21;;;;;;;15.68;11.48;;;;;;;4.06;63.28;101124.00;10415999;28;20064;-66
2021/01/15 14:39:22;;;;;;;14.35;10.57;;;;;;;3.92;62.87;101123.66;10420044;28;20056;-65
2021/01/15 14:44:23;;;;;;;14.30;11.70;;;;;;;3.87;62.98;101124.72;10424408;28;20079;-66
2021/01/15 14:49:24;;;;;;;13.40;10.70;;;;;;;3.72;62.82;101130.53;10386189;28;20141;-64
2021/01/15 14:54:26;;;;;;;13.23;10.73;;;;;;;3.82;62.76;101150.34;10384657;28;20099;-66
2021/01/15 14:59:43;;;;;;;14.43;11.65;;;;;;;3.73;62.85;101153.34;10425166;28;20052;-65
2021/01/15 15:04:44;;;;;;;12.10;10.25;;;;;;;3.80;62.19;101152.19;10447873;28;20071;-65
2021/01/15 15:09:45;;;;;;;13.55;11.05;;;;;;;3.75;62.55;101145.38;10418671;28;20053;-65
2021/01/15 15:14:46;;;;;;;13.82;12.18;;;;;;;3.77;61.99;101170.75;10420761;28;20056;-64
2021/01/15 15:19:47;;;;;;;13.30;10.70;;;;;;;3.79;62.37;101163.63;10419131;28;20123;-66
2021/01/15 15:24:49;;;;;;;13.48;10.38;;;;;;;3.74;61.73;101178.78;10419972;28;20080;-65
2021/01/15 15:29:50;;;;;;;18.05;10.95;;;;;;;3.69;61.95;101178.06;10415482;28;20065;-66
2021/01/15 15:34:53;;;;;;;14.35;12.45;;;;;;;3.76;61.77;101189.25;10415840;28;20144;-66
2021/01/15 15:39:54;;;;;;;15.40;10.57;;;;;;;3.77;62.14;101189.19;10415819;28;20077;-66
2021/01/15 15:44:55;;;;;;;16.27;12.80;;;;;;;3.79;62.46;101189.13;10416197;28;20064;-65
2021/01/15 15:49:57;;;;;;;16.17;11.55;;;;;;;3.74;62.61;101183.16;10416487;28;20083;-65
2021/01/15 15:54:58;;;;;;;15.98;11.75;;;;;;;3.69;62.66;101191.22;10463751;22;20080;-70
2021/01/15 15:59:59;;;;;;;15.00;12.38;;;;;;;3.65;63.00;101187.00;10486953;28;20305;-69
2021/01/15 16:05:01;;;;;;;14.02;11.68;;;;;;;3.65;62.71;101190.50;10483959;28;20364;-69
2021/01/15 16:10:06;;;;;;;14.30;11.00;;;;;;;3.61;62.59;101185.41;10518948;28;20043;-70
2021/01/15 16:15:08;;;;;;;14.60;11.23;;;;;;;3.63;62.75;101204.63;10521282;28;20096;-69
2021/01/15 16:20:11;;;;;;;13.50;11.20;;;;;;;3.60;62.48;101199.47;10538134;28;20047;-69
2021/01/15 16:25:13;;;;;;;13.20;11.05;;;;;;;3.60;61.93;101210.84;10516533;28;20123;-68
2021/01/15 16:30:15;;;;;;;13.57;10.43;;;;;;;3.58;61.95;101217.13;10517658;28;20048;-69
2021/01/15 16:35:18;;;;;;;14.90;11.45;;;;;;;3.56;62.09;101214.53;10514704;28;20052;-69
2021/01/15 16:40:19;;;;;;;13.77;10.80;;;;;;;3.60;61.39;101225.81;10517984;28;20043;-71
2021/01/15 16:45:21;;;;;;;10.90;9.18;;;;;;;3.58;60.89;101228.50;10518226;28;20128;-69
2021/01/15 16:50:23;;;;;;;11.95;9.95;;;;;;;3.57;61.20;101236.44;10519176;28;20050;-67
2021/01/15 16:55:24;;;;;;;15.88;11.88;;;;;;;3.57;60.61;101233.81;10516366;28;20040;-70
2021/01/15 17:00:26;;;;;;;11.50;9.73;;;;;;;3.58;60.82;101232.91;10538602;28;20051;-68
2021/01/15 17:05:29;;;;;;;12.20;10.55;;;;;;;3.61;60.83;101236.28;10517502;28;20120;-69
2021/01/15 17:10:32;;;;;;;11.43;9.77;;;;;;;3.58;61.47;101238.19;10515008;28;20054;-70
2021/01/15 17:15:33;;;;;;;13.13;10.40;;;;;;;3.53;61.90;101233.91;10537848;28;21001;-70
2021/01/15 17:20:35;;;;;;;11.10;9.93;;;;;;;3.50;62.27;101244.56;10503708;28;20051;-71
2021/01/15 17:25:36;;;;;;;12.63;9.95;;;;;;;3.51;62.74;101243.66;10504423;28;20055;-69
2021/01/15 17:30:41;;;;;;;12.75;10.52;;;;;;;3.47;62.24;101252.56;10481089;28;20488;-70
2021/01/15 17:35:43;;;;;;;11.90;10.03;;;;;;;3.46;62.17;101250.84;10500638;28;20063;-69
2021/01/15 17:40:44;;;;;;;13.25;10.75;;;;;;;3.48;61.72;101253.41;10496451;28;20048;-70
2021/01/15 17:45:47;;;;;;;15.52;12.15;;;;;;;3.46;61.90;101261.38;10520743;28;23393;-68
2021/01/15 17:50:48;;;;;;;15.27;12.23;;;;;;;3.46;62.11;101265.78;10514044;28;20051;-71
2021/01/15 17:55:53;;;;;;;;;;;;;;;3.48;62.25;101263.94;10515461;28;20048;-70
2021/01/15 18:00:55;;;;;;;13.20;10.57;;;;;;;3.49;63.01;101261.25;10517888;28;19923;-70
2021/01/15 18:05:56;;;;;;;13.35;10.77;;;;;;;3.53;62.52;101267.31;10519044;28;20081;-70
2021/01/15 18:10:57;;;;;;;13.90;11.50;;;;;;;3.59;62.74;101269.72;10532170;28;20082;-71
2021/01/15 18:15:59;;;;;;;13.68;11.55;;;;;;;3.63;62.92;101265.19;10528589;28;20381;-70
2021/01/15 18:21:14;;;;;;;12.05;10.73;;;;;;;3.53;63.13;101259.41;10528262;28;20062;-71
2021/01/15 18:26:15;;;;;;;14.88;10.85;;;;;;;3.57;63.39;101262.78;10528474;28;20448;-70
2021/01/15 18:31:16;;;;;;;11.35;9.57;;;;;;;3.18;64.30;101272.84;10548039;28;20051;-70
2021/01/15 18:36:22;;;;;;;12.32;10.77;;;;;;;3.36;64.21;101276.63;10528523;28;20449;-71
2021/01/15 18:41:23;;;;;;;14.18;11.65;;;;;;;3.33;64.10;101260.06;10529222;28;20064;-70
2021/01/15 18:46:25;;;;;;;16.52;13.02;;;;;;;3.40;63.92;101260.75;10528589;28;20071;-68
2021/01/15 18:51:28;;;;;;;14.38;12.85;;;;;;;3.53;63.96;101283.09;10525560;28;20681;-70
2021/01/15 18:56:29;;;;;;;16.95;14.35;;;;;;;3.60;63.78;101284.56;10530574;28;20060;-70
2021/01/15 19:01:30;;;;;;;15.98;13.30;;;;;;;3.57;62.94;101284.69;10546897;28;20428;-71
2021/01/15 19:06:33;;;;;;;13.40;11.10;;;;;;;3.63;63.15;101292.38;10528242;28;20059;-70
2021/01/15 19:11:39;;;;;;;12.70;11.13;;;;;;;3.66;62.29;101283.50;10526027;28;20096;-70
2021/01/15 19:16:47;;;;;;;12.68;10.60;;;;;;;3.53;62.00;101286.56;10528227;28;20043;-70
2021/01/15 19:21:49;;;;;;;13.50;11.98;;;;;;;3.64;61.54;101286.19;10518928;28;20048;-72
2021/01/15 19:26:52;;;;;;;15.50;11.77;;;;;;;3.66;61.52;101284.38;10537980;28;20058;-69
2021/01/15 19:31:54;;;;;;;12.73;11.00;;;;;;;3.63;61.44;101288.88;10538371;28;20051;-70
2021/01/15 19:36:56;;;;;;;14.23;11.98;;;;;;;3.08;62.47;101303.00;10519594;28;20051;-71
2021/01/15 19:41:57;;;;;;;13.88;12.40;;;;;;;3.40;61.97;101292.31;10517319;28;20108;-71
2021/01/15 19:46:59;;;;;;;13.73;12.13;;;;;;;3.45;61.40;101278.09;10519368;28;20047;-69
2021/01/15 19:52:01;;;;;;;14.80;12.63;;;;;;;3.48;61.70;101285.88;10533581;28;20047;-71
2021/01/15 19:57:02;;;;;;;13.65;11.68;;;;;;;3.21;60.89;101294.69;10517450;28;20128;-71
2021/01/15 20:02:04;;;;;;;13.55;12.10;;;;;;;3.29;61.19;101301.44;10521476;28;20047;-70
2021/01/15 20:07:05;;;;;;;13.20;10.55;;;;;;;3.38;59.58;101296.75;10517269;28;20043;-71
2021/01/15 20:12:07;;;;;;;12.25;10.95;;;;;;;3.34;59.73;101293.38;10518483;28;20583;-68
2021/01/15 20:17:09;;;;;;;12.30;9.52;;;;;;;3.34;60.90;101293.38;10519307;28;20524;-71
2021/01/15 20:22:10;;;;;;;12.18;10.50;;;;;;;3.26;60.62;101284.88;10536341;28;20055;-72
2021/01/15 20:27:12;;;;;;;11.95;10.75;;;;;;;3.05;60.33;101289.94;10515985;28;20054;-70
2021/01/15 20:32:13;;;;;;;12.43;10.70;;;;;;;3.32;60.49;101296.06;10516322;28;20043;-70
2021/01/15 20:37:16;;;;;;;11.32;9.85;;;;;;;3.39;59.49;101286.19;10514456;28;20318;-69
2021/01/15 20:42:17;;;;;;;13.40;10.45;;;;;;;3.21;59.50;101287.66;10520024;28;20052;-72
2021/01/15 20:47:19;;;;;;;14.10;10.57;;;;;;;3.07;60.36;101295.16;10548563;28;20070;-70
2021/01/15 20:52:20;;;;;;;10.77;9.52;;;;;;;3.17;59.62;101299.22;10520939;28;20050;-72
2021/01/15 20:57:21;;;;;;;11.60;8.60;;;;;;;2.75;60.63;101305.78;10535210;28;20124;-70
2021/01/15 21:02:23;;;;;;;10.55;8.50;;;;;;;2.94;60.87;101292.06;10518318;28;20043;-71
2021/01/15 21:07:24;;;;;;;11.40;9.38;;;;;;;2.89;60.11;101307.13;10518330;28;25944;-70
2021/01/15 21:12:28;;;;;;;11.32;8.23;;;;;;;2.80;60.98;101317.00;10520024;28;20167;-71
2021/01/15 21:17:29;;;;;;;11.10;9.77;;;;;;;2.99;60.59;101314.69;10512429;28;20055;-71
2021/01/15 21:22:31;;;;;;;9.50;8.50;;;;;;;3.14;60.05;101312.47;10515671;28;21191;-72
2021/01/15 21:27:32;;;;;;;10.30;8.30;;;;;;;3.12;60.30;101314.28;10531360;28;20615;-72
2021/01/15 21:32:44;;;;;;;9.80;8.57;;;;;;;2.74;61.00;101319.00;10516169;28;20143;-70
2021/01/15 21:37:51;;;;;;;9.98;8.15;;;;;;;2.67;61.83;101318.31;10526345;28;20675;-69
2021/01/15 21:42:53;;;;;;;11.23;9.07;;;;;;;2.81;60.94;101326.63;10525897;28;20051;-68
2021/01/15 21:47:55;;;;;;;10.77;9.18;;;;;;;2.94;60.76;101326.25;10533093;28;20527;-68
2021/01/15 21:52:58;;;;;;;11.82;9.43;;;;;;;3.13;60.75;101329.16;10535176;28;20050;-69
2021/01/15 21:58:00;;;;;;;11.02;9.13;;;;;;;3.29;60.49;101329.53;10527694;28;20676;-68
2021/01/15 22:03:02;;;;;;;10.90;9.80;;;;;;;3.39;60.02;101333.56;10520150;28;20131;-68
2021/01/15 22:08:11;;;;;;;12.20;10.43;;;;;;;3.23;59.75;101327.97;10521167;28;20047;-69
2021/01/15 22:13:21;;;;;;;13.32;10.50;;;;;;;3.06;59.74;101323.22;10522768;28;20298;-68
2021/01/15 22:18:24;;;;;;;12.00;10.35;;;;;;;2.96;60.40;101330.56;10544571;28;20055;-69
2021/01/15 22:23:36;;;;;;;12.68;10.07;;;;;;;3.03;59.66;101325.09;10524003;28;20100;-68
2021/01/15 22:28:37;;;;;;;12.40;9.55;;;;;;;2.98;60.15;101323.47;10521460;28;20058;-69
2021/01/15 22:33:39;;;;;;;12.85;10.68;;;;;;;2.77;60.34;101330.25;10550190;28;20062;-69
2021/01/15 22:38:41;;;;;;;12.82;10.38;;;;;;;2.84;59.50;101328.31;10547416;28;20481;-68
2021/01/15 22:43:45;;;;;;;12.15;10.68;;;;;;;2.45;60.80;101334.72;10548070;28;25086;-69
2021/01/15 22:48:46;;;;;;;15.32;11.13;;;;;;;2.48;61.37;101336.41;10522375;28;20125;-69
2021/01/15 22:53:47;;;;;;;12.65;10.40;;;;;;;2.78;60.72;101342.50;10548714;28;20051;-70
2021/01/15 22:58:49;;;;;;;13.75;11.02;;;;;;;2.88;60.21;101340.44;10551747;28;20047;-69
2021/01/15 23:03:50;;;;;;;14.13;11.32;;;;;;;2.95;60.39;101338.50;10530352;28;20116;-68
2021/01/15 23:08:52;;;;;;;13.48;12.02;;;;;;;3.13;60.04;101343.16;10538173;28;20305;-68